Time;durP1;ratioP1;P1;durP2;ratioP2;P2;SDS_P1;SDS_P2;PMS_P1;PMS_P2;Temp;Humidity;BMP_temperature;BMP_pressure;BME280_temperature;BME280_humidity;BME280_pressure;Samples;Min_cycle;Max_cycle;Signal;HPM_P1;HPM_P2
2021/01/02 00:02:03;;;;;;;6.37;3.83;;;;;;;4.81;71.86;100374.86;1713907;83;21860;-66
2021/01/02 00:04:53;;;;;;;6.58;3.83;;;;;;;4.80;72.05;100377.23;1713890;83;21102;-67
2021/01/02 00:07:32;;;;;;;;;;;;;;;4.83;72.21;100383.69;1716535;83;21778;-67
2021/01/02 00:10:01;;;;;;;10.08;4.97;;;;;;;4.83;72.06;100385.05;1713540;83;20703;-68
2021/01/02 00:13:06;;;;;;;16.27;7.92;;;;;;;4.80;72.15;100395.72;1713871;83;21135;-69
2021/01/02 00:15:58;;;;;;;11.75;6.85;;;;;;;4.81;72.19;100394.71;1714175;83;21362;-69
2021/01/02 00:19:16;;;;;;;13.50;6.30;;;;;;;4.85;72.32;100396.09;1705554;83;21202;-70
2021/01/02 00:21:52;;;;;;;9.90;5.53;;;;;;;4.88;72.36;100397.63;1713776;83;21843;-68
2021/01/02 00:24:47;;;;;;;10.72;5.20;;;;;;;4.90;72.34;100404.60;1696917;83;21136;-67
2021/01/02 00:27:38;;;;;;;10.78;5.25;;;;;;;4.90;72.30;100405.11;1713773;83;21327;-68
2021/01/02 00:30:10;;;;;;;10.95;5.20;;;;;;;4.86;72.36;100418.16;1713320;83;21261;-68
2021/01/02 00:32:55;;;;;;;11.83;5.70;;;;;;;4.77;72.18;100419.11;1713990;83;21259;-68
2021/01/02 00:35:23;;;;;;;10.20;5.12;;;;;;;4.73;72.28;100420.45;1713745;83;21703;-69
2021/01/02 00:38:05;;;;;;;12.53;5.40;;;;;;;4.66;72.26;100429.73;1713992;83;21329;-69
2021/01/02 00:40:37;;;;;;;13.68;5.92;;;;;;;4.63;72.24;100433.27;1714004;83;21306;-70
2021/01/02 00:43:04;;;;;;;11.80;5.53;;;;;;;4.61;72.32;100439.36;1713823;83;21310;-68
2021/01/02 00:45:34;;;;;;;10.82;5.78;;;;;;;4.64;72.24;100440.40;1713951;83;21330;-67
2021/01/02 00:48:05;;;;;;;15.15;8.05;;;;;;;4.62;72.06;100439.70;1693309;83;21799;-69
2021/01/02 00:50:32;;;;;;;11.90;6.92;;;;;;;4.60;72.04;100441.73;1716901;83;21764;-67
2021/01/02 00:53:20;;;;;;;10.48;5.20;;;;;;;4.61;72.08;100445.64;1693270;83;21229;-69
2021/01/02 00:55:58;;;;;;;;;;;;;;;4.61;71.50;100447.00;1716604;83;21115;-66
2021/01/02 00:58:57;;;;;;;10.88;5.92;;;;;;;4.58;71.43;100455.95;1714077;83;20235;-68
2021/01/02 01:01:38;;;;;;;12.35;6.20;;;;;;;4.59;71.48;100456.30;1713943;83;21082;-68
2021/01/02 01:04:47;;;;;;;12.63;7.17;;;;;;;4.60;71.12;100463.44;1711577;83;21322;-68
2021/01/02 01:07:18;;;;;;;14.75;8.00;;;;;;;4.58;70.93;100464.95;1714074;83;21103;-68
2021/01/02 01:09:50;;;;;;;11.57;5.72;;;;;;;4.53;71.01;100464.53;1693663;83;21100;-67
2021/01/02 01:12:18;;;;;;;9.65;5.10;;;;;;;4.53;70.89;100459.61;1713955;83;21178;-70
2021/01/02 01:14:46;;;;;;;9.35;4.70;;;;;;;4.52;70.83;100461.48;1713957;83;21214;-68
2021/01/02 01:17:19;;;;;;;15.08;7.53;;;;;;;4.52;70.77;100465.55;1713761;83;21318;-68
2021/01/02 01:19:54;;;;;;;13.32;7.20;;;;;;;4.52;70.54;100473.69;1714071;83;21806;-68
2021/01/02 01:22:25;;;;;;;12.82;6.33;;;;;;;4.50;70.58;100476.20;1713937;83;21103;-66
2021/01/02 01:25:06;;;;;;;11.60;5.80;;;;;;;4.48;70.55;100484.50;1713943;83;21397;-68
2021/01/02 01:27:45;;;;;;;10.85;6.25;;;;;;;4.48;70.62;100470.09;1714151;83;21795;-68
2021/01/02 01:30:14;;;;;;;11.30;5.28;;;;;;;4.45;70.48;100481.60;1715218;83;21781;-67
2021/01/02 01:32:43;;;;;;;9.43;4.97;;;;;;;4.43;70.77;100480.05;1713903;83;21111;-68
2021/01/02 01:35:12;;;;;;;9.95;4.55;;;;;;;4.41;70.46;100480.20;1713870;83;21340;-67
2021/01/02 01:37:40;;;;;;;9.98;4.47;;;;;;;4.38;70.52;100485.09;1714005;83;21107;-67
2021/01/02 01:40:09;;;;;;;11.15;5.33;;;;;;;4.38;70.68;100481.02;1713847;83;21306;-66
2021/01/02 01:42:42;;;;;;;8.73;4.47;;;;;;;4.39;70.67;100492.22;1713712;83;21860;-67
2021/01/02 01:45:39;;;;;;;8.88;5.00;;;;;;;4.41;70.45;100488.85;1713934;83;21219;-67
2021/01/02 01:48:10;;;;;;;8.63;4.50;;;;;;;4.40;70.28;100488.50;1713945;83;21820;-66
2021/01/02 01:51:17;;;;;;;11.45;4.80;;;;;;;4.35;69.67;100498.97;1714003;83;21083;-67
2021/01/02 01:54:00;;;;;;;13.25;5.20;;;;;;;4.27;69.80;100503.81;1714007;83;21382;-66
2021/01/02 01:56:49;;;;;;;8.93;4.60;;;;;;;4.23;69.87;100511.05;1713912;83;21131;-65
2021/01/02 01:59:22;;;;;;;12.00;5.10;;;;;;;4.17;69.71;100515.73;1714049;83;21107;-68
2021/01/02 02:01:55;;;;;;;10.25;4.47;;;;;;;4.13;69.70;100518.76;1713797;83;21844;-68
2021/01/02 02:04:46;;;;;;;9.30;4.60;;;;;;;4.06;69.59;100525.80;1713959;83;21342;-67
